createdAt,value
2022-10-12T00:04:17.305Z,11.42
2022-10-12T00:09:38.079Z,11.39
2022-10-12T00:14:58.676Z,11.31
2022-10-12T00:20:19.476Z,11.15
2022-10-12T00:25:41.518Z,11.08
2022-10-12T00:31:07.653Z,11.19
2022-10-12T00:36:32.603Z,11.26
2022-10-12T00:41:53.699Z,11.34
2022-10-12T00:47:29.575Z,11.28
2022-10-12T00:52:53.590Z,11.25
2022-10-12T00:58:15.164Z,10.88
2022-10-12T01:03:36.836Z,10.72
2022-10-12T01:08:58.152Z,10.66
2022-10-12T01:14:19.646Z,10.54
2022-10-12T01:20:10.592Z,10.63
2022-10-12T01:25:56.661Z,10.80
2022-10-12T01:31:30.059Z,10.75
2022-10-12T01:37:21.416Z,10.81
2022-10-12T01:42:44.490Z,10.82
2022-10-12T01:48:05.870Z,10.79
2022-10-12T01:53:34.171Z,10.83
2022-10-12T01:59:11.511Z,10.87
2022-10-12T02:04:58.600Z,10.79
2022-10-12T02:10:35.522Z,10.77
2022-10-12T02:16:00.616Z,10.78
2022-10-12T02:21:26.132Z,10.92
2022-10-12T02:26:49.466Z,10.89
2022-10-12T02:32:19.193Z,10.78
2022-10-12T02:38:18.651Z,10.67
2022-10-12T02:43:48.106Z,10.59
2022-10-12T02:49:11.743Z,10.70
2022-10-12T02:54:32.393Z,10.86
2022-10-12T02:59:53.188Z,10.96
2022-10-12T03:05:13.886Z,10.97
2022-10-12T03:10:34.633Z,10.95
2022-10-12T03:16:01.588Z,10.86
2022-10-12T03:21:22.363Z,10.82
2022-10-12T03:26:43.128Z,10.77
2022-10-12T03:32:03.776Z,10.76
2022-10-12T03:37:24.498Z,10.86
2022-10-12T03:42:45.211Z,10.86
2022-10-12T03:48:07.142Z,10.92
2022-10-12T03:53:27.926Z,10.90
2022-10-12T03:58:48.542Z,10.92
2022-10-12T04:04:10.874Z,10.76
2022-10-12T04:09:31.680Z,10.75
2022-10-12T04:14:54.614Z,10.79
2022-10-12T04:20:15.510Z,10.82
2022-10-12T04:25:36.058Z,10.96
2022-10-12T04:30:56.412Z,10.88
2022-10-12T04:36:16.976Z,10.90
2022-10-12T04:41:39.584Z,10.96
2022-10-12T04:47:03.126Z,11.09
2022-10-12T04:52:23.864Z,11.06
2022-10-12T04:57:44.576Z,11.00
2022-10-12T05:03:05.667Z,11.04
2022-10-12T05:08:26.526Z,10.97
2022-10-12T05:13:47.611Z,10.92
2022-10-12T05:19:08.371Z,11.01
2022-10-12T05:24:29.097Z,10.86
2022-10-12T05:29:49.630Z,10.63
2022-10-12T05:35:11.329Z,10.56
2022-10-12T05:40:32.970Z,10.38
2022-10-12T05:45:53.487Z,10.32
2022-10-12T05:51:14.324Z,10.39
2022-10-12T05:56:34.841Z,10.52
2022-10-12T06:01:55.575Z,10.41
2022-10-12T06:07:16.211Z,10.45
2022-10-12T06:12:37.283Z,10.59
2022-10-12T06:17:58.304Z,10.76
2022-10-12T06:23:20.242Z,10.89
2022-10-12T06:28:41.701Z,10.73
2022-10-12T06:34:02.257Z,10.88
2022-10-12T06:39:25.617Z,10.98
2022-10-12T06:44:46.593Z,10.97
2022-10-12T06:50:08.931Z,10.93
2022-10-12T06:55:29.699Z,10.84
2022-10-12T07:00:50.703Z,10.81
2022-10-12T07:06:14.059Z,10.76
2022-10-12T07:11:35.088Z,11.15
2022-10-12T07:16:55.822Z,11.32
2022-10-12T07:22:16.387Z,11.23
2022-10-12T07:27:37.446Z,11.19
2022-10-12T07:32:58.267Z,11.21
2022-10-12T07:38:18.824Z,11.21
2022-10-12T07:43:39.436Z,11.28
2022-10-12T07:49:00.309Z,11.41
2022-10-12T07:54:26.796Z,11.44
2022-10-12T07:59:49.717Z,11.62
2022-10-12T08:05:10.473Z,11.87
2022-10-12T08:10:34.311Z,11.76
2022-10-12T08:15:55.242Z,11.89
2022-10-12T08:21:17.434Z,12.04
2022-10-12T08:26:38.634Z,12.19
2022-10-12T08:32:01.838Z,12.24
2022-10-12T08:37:22.873Z,12.14
2022-10-12T08:42:56.646Z,12.12
2022-10-12T08:48:24.571Z,12.21
2022-10-12T08:53:55.742Z,12.24
2022-10-12T08:59:19.018Z,12.27
2022-10-12T09:04:59.601Z,12.33
2022-10-12T09:10:20.516Z,12.34
2022-10-12T09:15:52.944Z,12.37
2022-10-12T09:21:18.315Z,12.43
2022-10-12T09:26:42.080Z,12.99
2022-10-12T09:32:49.224Z,12.92
2022-10-12T09:38:10.698Z,12.93
2022-10-12T09:43:31.609Z,12.95
2022-10-12T09:49:00.420Z,13.07
2022-10-12T09:54:28.380Z,13.26
2022-10-12T09:59:49.821Z,13.32
2022-10-12T10:05:34.283Z,13.39
2022-10-12T10:10:57.034Z,13.51
2022-10-12T10:16:20.286Z,13.82
2022-10-12T10:21:42.031Z,13.70
2022-10-12T10:27:04.935Z,13.67
2022-10-12T10:32:29.989Z,13.59
2022-10-12T10:38:00.989Z,13.64
2022-10-12T10:43:30.622Z,13.72
2022-10-12T10:48:53.635Z,13.81
2022-10-12T10:54:23.701Z,13.84
2022-10-12T10:59:47.319Z,14.01
2022-10-12T11:05:16.910Z,14.06
2022-10-12T11:10:46.780Z,14.22
2022-10-12T11:16:28.639Z,14.31
2022-10-12T11:21:54.673Z,14.45
2022-10-12T11:27:25.827Z,14.50
2022-10-12T11:32:52.618Z,14.56
2022-10-12T11:38:42.514Z,14.63
2022-10-12T11:44:24.132Z,14.76
2022-10-12T11:49:59.843Z,14.80
2022-10-12T11:55:38.560Z,14.94
2022-10-12T12:01:17.628Z,14.87
2022-10-12T12:07:02.738Z,14.83
2022-10-12T12:12:29.049Z,14.76
2022-10-12T12:18:29.108Z,14.66
2022-10-12T12:23:53.525Z,14.63
2022-10-12T12:29:26.853Z,14.65
2022-10-12T12:35:00.729Z,14.69
2022-10-12T12:40:23.056Z,14.69
2022-10-12T12:45:55.690Z,14.74
2022-10-12T12:51:20.546Z,14.74
2022-10-12T12:57:07.647Z,14.77
2022-10-12T13:03:19.534Z,14.70
2022-10-12T13:09:08.623Z,14.76
2022-10-12T13:14:53.864Z,14.93
2022-10-12T13:20:17.798Z,14.97
2022-10-12T13:25:48.282Z,14.95
2022-10-12T13:31:18.253Z,14.94
2022-10-12T13:37:10.699Z,14.91
2022-10-12T13:42:34.896Z,14.94
2022-10-12T13:48:04.459Z,14.91
2022-10-12T13:53:33.747Z,14.84
2022-10-12T13:59:04.253Z,14.83
2022-10-12T14:04:30.132Z,14.91
2022-10-12T14:10:17.071Z,14.87
2022-10-12T14:15:40.592Z,14.72
2022-10-12T14:21:26.872Z,14.64
2022-10-12T14:26:57.831Z,14.84
2022-10-12T14:32:26.856Z,14.78
2022-10-12T14:37:48.606Z,14.62
2022-10-12T14:43:12.527Z,14.62
2022-10-12T14:48:33.278Z,14.61
2022-10-12T14:54:04.171Z,14.59
2022-10-12T14:59:24.900Z,14.58
2022-10-12T15:04:46.387Z,14.55
2022-10-12T15:10:08.092Z,14.50
2022-10-12T15:15:40.731Z,14.47
2022-10-12T15:21:01.718Z,14.50
2022-10-12T15:26:23.367Z,14.43
2022-10-12T15:31:47.698Z,14.40
2022-10-12T15:37:11.728Z,14.35
2022-10-12T15:42:32.440Z,14.53
2022-10-12T15:47:53.901Z,14.65
2022-10-12T15:53:24.357Z,14.73
2022-10-12T15:58:45.690Z,14.62
2022-10-12T16:04:07.115Z,14.47
2022-10-12T16:09:28.148Z,14.43
2022-10-12T16:14:48.820Z,14.29
2022-10-12T16:20:10.689Z,14.02
2022-10-12T16:25:31.623Z,13.80
2022-10-12T16:30:52.960Z,14.13
2022-10-12T16:36:16.290Z,13.97
2022-10-12T16:41:37.239Z,14.15
2022-10-12T16:46:58.044Z,13.93
2022-10-12T16:52:19.840Z,13.74
2022-10-12T16:57:41.429Z,13.67
2022-10-12T17:03:02.093Z,13.56
2022-10-12T17:08:22.794Z,13.40
2022-10-12T17:13:48.770Z,13.30
2022-10-12T17:19:09.890Z,13.28
2022-10-12T17:24:32.350Z,13.14
2022-10-12T17:29:53.568Z,13.04
2022-10-12T17:35:14.749Z,12.84
2022-10-12T17:40:39.287Z,12.79
2022-10-12T17:46:00.278Z,12.77
2022-10-12T17:51:20.935Z,12.61
2022-10-12T17:56:44.113Z,12.43
2022-10-12T18:02:09.222Z,12.28
2022-10-12T18:07:30.309Z,12.26
2022-10-12T18:12:52.251Z,12.12
2022-10-12T18:18:15.243Z,12.14
2022-10-12T18:23:36.942Z,12.10
2022-10-12T18:29:00.609Z,12.05
2022-10-12T18:34:21.394Z,11.89
2022-10-12T18:39:44.033Z,11.74
2022-10-12T18:45:05.462Z,11.57
2022-10-12T18:50:26.957Z,11.40
2022-10-12T18:55:48.615Z,11.36
2022-10-12T19:01:14.939Z,11.45
2022-10-12T19:06:38.169Z,11.38
2022-10-12T19:11:59.081Z,11.30
2022-10-12T19:17:23.159Z,11.29
2022-10-12T19:22:43.809Z,11.31
2022-10-12T19:28:04.503Z,11.27
2022-10-12T19:33:27.322Z,11.34
2022-10-12T19:38:48.404Z,11.30
2022-10-12T19:44:11.407Z,11.28
2022-10-12T19:49:36.622Z,11.23
2022-10-12T19:54:58.607Z,11.14
2022-10-12T20:00:19.740Z,11.13
2022-10-12T20:05:46.403Z,10.95
2022-10-12T20:11:08.865Z,10.86
2022-10-12T20:16:35.047Z,10.87
2022-10-12T20:21:56.084Z,10.66
2022-10-12T20:27:17.181Z,10.51
2022-10-12T20:32:38.149Z,10.68
2022-10-12T20:38:00.009Z,10.85
2022-10-12T20:43:20.972Z,10.68
2022-10-12T20:48:44.453Z,10.64
2022-10-12T20:54:06.578Z,10.75
2022-10-12T20:59:27.122Z,10.75
2022-10-12T21:04:51.245Z,10.82
2022-10-12T21:10:11.993Z,10.79
2022-10-12T21:15:32.567Z,10.89
2022-10-12T21:20:58.524Z,10.80
2022-10-12T21:26:21.757Z,10.92
2022-10-12T21:31:42.602Z,10.80
2022-10-12T21:37:03.412Z,10.75
2022-10-12T21:42:24.154Z,10.73
2022-10-12T21:47:44.701Z,10.62
2022-10-12T21:53:05.189Z,10.62
2022-10-12T21:58:26.011Z,10.49
2022-10-12T22:03:49.841Z,10.33
2022-10-12T22:09:16.893Z,10.12
2022-10-12T22:14:37.451Z,9.97
2022-10-12T22:19:58.351Z,9.82
2022-10-12T22:25:18.913Z,9.87
2022-10-12T22:30:40.129Z,9.87
2022-10-12T22:36:01.563Z,9.96
2022-10-12T22:41:23.413Z,9.89
2022-10-12T22:46:44.319Z,9.86
2022-10-12T22:52:05.079Z,9.80
2022-10-12T22:57:30.118Z,9.70
2022-10-12T23:02:50.629Z,9.64
2022-10-12T23:08:11.157Z,9.45
2022-10-12T23:13:33.052Z,9.42
2022-10-12T23:18:59.818Z,9.42
2022-10-12T23:24:20.426Z,9.40
2022-10-12T23:29:41.095Z,9.32
2022-10-12T23:35:02.347Z,9.24
2022-10-12T23:40:22.875Z,9.28
2022-10-12T23:45:44.287Z,9.28
2022-10-12T23:51:09.747Z,9.15
2022-10-12T23:56:30.446Z,9.18
